sensor_id;sensor_type;location;lat;lon;timestamp;temperature;humidity
48162;DHT22;33950;48.154;16.316;2023-11-19T00:00:06;4.60;98.40
48162;DHT22;33950;48.154;16.316;2023-11-19T00:02:36;4.60;98.40
48162;DHT22;33950;48.154;16.316;2023-11-19T00:05:02;4.60;98.30
48162;DHT22;33950;48.154;16.316;2023-11-19T00:07:27;4.60;98.40
48162;DHT22;33950;48.154;16.316;2023-11-19T00:09:53;4.60;98.60
48162;DHT22;33950;48.154;16.316;2023-11-19T00:12:20;4.60;98.70
48162;DHT22;33950;48.154;16.316;2023-11-19T00:14:47;4.60;98.80
48162;DHT22;33950;48.154;16.316;2023-11-19T00:17:12;4.70;98.80
48162;DHT22;33950;48.154;16.316;2023-11-19T00:19:38;4.70;98.70
48162;DHT22;33950;48.154;16.316;2023-11-19T00:22:03;4.70;98.60
48162;DHT22;33950;48.154;16.316;2023-11-19T00:24:29;4.60;98.50
48162;DHT22;33950;48.154;16.316;2023-11-19T00:26:55;4.60;98.40
48162;DHT22;33950;48.154;16.316;2023-11-19T00:29:21;4.50;98.30
48162;DHT22;33950;48.154;16.316;2023-11-19T00:31:48;4.50;98.50
48162;DHT22;33950;48.154;16.316;2023-11-19T00:34:14;4.50;98.70
48162;DHT22;33950;48.154;16.316;2023-11-19T00:36:39;4.50;98.90
48162;DHT22;33950;48.154;16.316;2023-11-19T00:39:05;4.50;99.00
48162;DHT22;33950;48.154;16.316;2023-11-19T00:41:31;4.50;99.00
48162;DHT22;33950;48.154;16.316;2023-11-19T00:43:57;4.60;99.20
48162;DHT22;33950;48.154;16.316;2023-11-19T00:46:22;4.60;99.20
48162;DHT22;33950;48.154;16.316;2023-11-19T00:48:49;4.60;99.10
48162;DHT22;33950;48.154;16.316;2023-11-19T00:51:15;4.50;99.10
48162;DHT22;33950;48.154;16.316;2023-11-19T00:53:40;4.50;99.30
48162;DHT22;33950;48.154;16.316;2023-11-19T00:56:06;4.40;99.40
48162;DHT22;33950;48.154;16.316;2023-11-19T00:58:32;4.40;99.40
48162;DHT22;33950;48.154;16.316;2023-11-19T01:00:57;4.30;99.40
48162;DHT22;33950;48.154;16.316;2023-11-19T01:03:23;4.20;99.60
48162;DHT22;33950;48.154;16.316;2023-11-19T01:05:50;4.20;99.70
48162;DHT22;33950;48.154;16.316;2023-11-19T01:08:17;4.20;99.90
48162;DHT22;33950;48.154;16.316;2023-11-19T01:10:43;4.20;99.80
48162;DHT22;33950;48.154;16.316;2023-11-19T01:13:09;4.20;99.90
48162;DHT22;33950;48.154;16.316;2023-11-19T01:15:35;4.20;99.90
48162;DHT22;33950;48.154;16.316;2023-11-19T01:18:01;4.20;99.90
48162;DHT22;33950;48.154;16.316;2023-11-19T01:20:30;4.20;99.90
48162;DHT22;33950;48.154;16.316;2023-11-19T01:22:57;4.20;99.90
48162;DHT22;33950;48.154;16.316;2023-11-19T01:25:22;4.20;99.90
48162;DHT22;33950;48.154;16.316;2023-11-19T01:27:48;4.20;99.90
48162;DHT22;33950;48.154;16.316;2023-11-19T01:30:15;4.20;99.90
48162;DHT22;33950;48.154;16.316;2023-11-19T01:32:41;4.10;99.90
48162;DHT22;33950;48.154;16.316;2023-11-19T01:35:07;4.10;99.90
48162;DHT22;33950;48.154;16.316;2023-11-19T01:37:33;4.20;99.90
48162;DHT22;33950;48.154;16.316;2023-11-19T01:40:01;4.20;99.90
48162;DHT22;33950;48.154;16.316;2023-11-19T01:42:28;4.30;99.90
48162;DHT22;33950;48.154;16.316;2023-11-19T01:44:57;4.30;99.80
48162;DHT22;33950;48.154;16.316;2023-11-19T01:47:23;4.40;99.70
48162;DHT22;33950;48.154;16.316;2023-11-19T01:49:49;4.40;99.80
48162;DHT22;33950;48.154;16.316;2023-11-19T01:52:15;4.50;99.70
48162;DHT22;33950;48.154;16.316;2023-11-19T01:54:41;4.60;99.80
48162;DHT22;33950;48.154;16.316;2023-11-19T01:57:09;4.60;99.80
48162;DHT22;33950;48.154;16.316;2023-11-19T01:59:34;4.70;99.80
48162;DHT22;33950;48.154;16.316;2023-11-19T02:02:00;4.70;99.70
48162;DHT22;33950;48.154;16.316;2023-11-19T02:04:26;4.70;99.60
48162;DHT22;33950;48.154;16.316;2023-11-19T02:06:51;4.70;99.60
48162;DHT22;33950;48.154;16.316;2023-11-19T02:09:19;4.70;99.80
48162;DHT22;33950;48.154;16.316;2023-11-19T02:11:45;4.80;99.70
48162;DHT22;33950;48.154;16.316;2023-11-19T02:14:15;4.80;99.60
48162;DHT22;33950;48.154;16.316;2023-11-19T02:16:40;4.80;99.70
48162;DHT22;33950;48.154;16.316;2023-11-19T02:19:06;4.70;98.90
48162;DHT22;33950;48.154;16.316;2023-11-19T02:21:33;4.70;98.90
48162;DHT22;33950;48.154;16.316;2023-11-19T02:23:59;4.60;99.00
48162;DHT22;33950;48.154;16.316;2023-11-19T02:26:26;4.60;99.40
48162;DHT22;33950;48.154;16.316;2023-11-19T02:28:55;4.60;99.70
48162;DHT22;33950;48.154;16.316;2023-11-19T02:31:21;4.50;99.90
48162;DHT22;33950;48.154;16.316;2023-11-19T02:33:48;4.40;99.90
48162;DHT22;33950;48.154;16.316;2023-11-19T02:36:15;4.30;99.90
48162;DHT22;33950;48.154;16.316;2023-11-19T02:38:42;4.20;99.90
48162;DHT22;33950;48.154;16.316;2023-11-19T02:41:07;4.10;99.90
48162;DHT22;33950;48.154;16.316;2023-11-19T02:43:33;4.10;99.90
48162;DHT22;33950;48.154;16.316;2023-11-19T02:46:01;4.00;99.90
48162;DHT22;33950;48.154;16.316;2023-11-19T02:48:27;3.90;99.90
48162;DHT22;33950;48.154;16.316;2023-11-19T02:50:53;3.90;99.90
48162;DHT22;33950;48.154;16.316;2023-11-19T02:53:18;3.90;99.90
48162;DHT22;33950;48.154;16.316;2023-11-19T02:55:47;3.90;99.90
48162;DHT22;33950;48.154;16.316;2023-11-19T02:58:15;3.90;99.90
48162;DHT22;33950;48.154;16.316;2023-11-19T03:00:49;3.80;99.90
48162;DHT22;33950;48.154;16.316;2023-11-19T03:03:23;3.80;99.90
48162;DHT22;33950;48.154;16.316;2023-11-19T03:05:54;3.80;99.90
48162;DHT22;33950;48.154;16.316;2023-11-19T03:08:19;3.80;99.90
48162;DHT22;33950;48.154;16.316;2023-11-19T03:10:45;3.80;99.90
48162;DHT22;33950;48.154;16.316;2023-11-19T03:13:11;3.80;99.90
48162;DHT22;33950;48.154;16.316;2023-11-19T03:15:38;3.80;99.90
48162;DHT22;33950;48.154;16.316;2023-11-19T03:18:03;3.80;99.90
48162;DHT22;33950;48.154;16.316;2023-11-19T03:20:30;3.80;99.90
48162;DHT22;33950;48.154;16.316;2023-11-19T03:22:56;3.80;99.90
48162;DHT22;33950;48.154;16.316;2023-11-19T03:25:24;3.80;99.90
48162;DHT22;33950;48.154;16.316;2023-11-19T03:27:50;3.90;99.90
48162;DHT22;33950;48.154;16.316;2023-11-19T03:30:15;3.90;99.90
48162;DHT22;33950;48.154;16.316;2023-11-19T03:32:43;3.90;99.90
48162;DHT22;33950;48.154;16.316;2023-11-19T03:35:08;3.90;99.90
48162;DHT22;33950;48.154;16.316;2023-11-19T03:37:36;3.90;99.90
48162;DHT22;33950;48.154;16.316;2023-11-19T03:40:01;4.00;99.90
48162;DHT22;33950;48.154;16.316;2023-11-19T03:42:27;4.00;99.90
48162;DHT22;33950;48.154;16.316;2023-11-19T03:44:53;4.10;99.90
48162;DHT22;33950;48.154;16.316;2023-11-19T03:47:19;4.10;99.90
48162;DHT22;33950;48.154;16.316;2023-11-19T03:49:46;4.10;99.90
48162;DHT22;33950;48.154;16.316;2023-11-19T03:52:12;4.20;99.90
48162;DHT22;33950;48.154;16.316;2023-11-19T03:54:39;4.10;99.90
48162;DHT22;33950;48.154;16.316;2023-11-19T03:57:04;4.10;99.90
48162;DHT22;33950;48.154;16.316;2023-11-19T03:59:30;4.10;99.90
48162;DHT22;33950;48.154;16.316;2023-11-19T04:01:56;4.10;99.90
48162;DHT22;33950;48.154;16.316;2023-11-19T04:04:22;4.20;99.90
48162;DHT22;33950;48.154;16.316;2023-11-19T04:06:47;4.20;99.90
48162;DHT22;33950;48.154;16.316;2023-11-19T04:09:13;4.20;99.90
48162;DHT22;33950;48.154;16.316;2023-11-19T04:11:40;4.10;99.90
48162;DHT22;33950;48.154;16.316;2023-11-19T04:14:05;4.10;99.90
48162;DHT22;33950;48.154;16.316;2023-11-19T04:16:31;4.10;99.90
48162;DHT22;33950;48.154;16.316;2023-11-19T04:18:57;4.10;99.90
48162;DHT22;33950;48.154;16.316;2023-11-19T04:21:22;4.10;99.90
48162;DHT22;33950;48.154;16.316;2023-11-19T04:23:48;4.10;99.90
48162;DHT22;33950;48.154;16.316;2023-11-19T04:26:14;4.10;99.90
48162;DHT22;33950;48.154;16.316;2023-11-19T04:28:42;4.00;99.90
48162;DHT22;33950;48.154;16.316;2023-11-19T04:31:07;4.00;99.90
48162;DHT22;33950;48.154;16.316;2023-11-19T04:33:34;4.00;99.90
48162;DHT22;33950;48.154;16.316;2023-11-19T04:36:00;4.00;99.90
48162;DHT22;33950;48.154;16.316;2023-11-19T04:38:25;4.10;99.90
48162;DHT22;33950;48.154;16.316;2023-11-19T04:40:52;4.10;99.90
48162;DHT22;33950;48.154;16.316;2023-11-19T04:43:17;4.20;99.90
48162;DHT22;33950;48.154;16.316;2023-11-19T04:45:45;4.20;99.90
48162;DHT22;33950;48.154;16.316;2023-11-19T04:48:10;4.30;99.90
48162;DHT22;33950;48.154;16.316;2023-11-19T04:50:37;4.30;99.90
48162;DHT22;33950;48.154;16.316;2023-11-19T04:53:03;4.30;99.90
48162;DHT22;33950;48.154;16.316;2023-11-19T04:55:29;4.30;99.90
48162;DHT22;33950;48.154;16.316;2023-11-19T04:57:55;4.20;99.90
48162;DHT22;33950;48.154;16.316;2023-11-19T05:00:20;4.20;99.90
48162;DHT22;33950;48.154;16.316;2023-11-19T05:02:48;4.20;99.90
48162;DHT22;33950;48.154;16.316;2023-11-19T05:05:16;4.20;99.90
48162;DHT22;33950;48.154;16.316;2023-11-19T05:07:42;4.30;99.90
48162;DHT22;33950;48.154;16.316;2023-11-19T05:10:07;4.30;99.90
48162;DHT22;33950;48.154;16.316;2023-11-19T05:12:34;4.20;99.90
48162;DHT22;33950;48.154;16.316;2023-11-19T05:14:59;4.20;99.90
48162;DHT22;33950;48.154;16.316;2023-11-19T05:17:25;4.20;99.90
48162;DHT22;33950;48.154;16.316;2023-11-19T05:19:52;4.20;99.90
48162;DHT22;33950;48.154;16.316;2023-11-19T05:22:18;4.30;99.90
48162;DHT22;33950;48.154;16.316;2023-11-19T05:24:43;4.20;99.90
48162;DHT22;33950;48.154;16.316;2023-11-19T05:27:09;4.20;99.90
48162;DHT22;33950;48.154;16.316;2023-11-19T05:29:36;4.10;99.90
48162;DHT22;33950;48.154;16.316;2023-11-19T05:32:04;4.10;99.90
48162;DHT22;33950;48.154;16.316;2023-11-19T05:34:30;4.10;99.90
48162;DHT22;33950;48.154;16.316;2023-11-19T05:36:57;4.20;99.90
48162;DHT22;33950;48.154;16.316;2023-11-19T05:39:23;4.30;99.90
48162;DHT22;33950;48.154;16.316;2023-11-19T05:41:49;4.30;99.90
48162;DHT22;33950;48.154;16.316;2023-11-19T05:44:15;4.30;99.90
48162;DHT22;33950;48.154;16.316;2023-11-19T05:46:41;4.30;99.90
48162;DHT22;33950;48.154;16.316;2023-11-19T05:49:08;4.30;99.90
48162;DHT22;33950;48.154;16.316;2023-11-19T05:51:35;4.30;99.90
48162;DHT22;33950;48.154;16.316;2023-11-19T05:54:03;4.20;99.90
48162;DHT22;33950;48.154;16.316;2023-11-19T05:56:28;4.10;99.90
48162;DHT22;33950;48.154;16.316;2023-11-19T05:58:57;4.10;99.90
48162;DHT22;33950;48.154;16.316;2023-11-19T06:01:23;4.10;99.90
48162;DHT22;33950;48.154;16.316;2023-11-19T06:03:48;4.10;99.90
48162;DHT22;33950;48.154;16.316;2023-11-19T06:06:15;4.10;99.90
48162;DHT22;33950;48.154;16.316;2023-11-19T06:08:40;4.10;99.90
48162;DHT22;33950;48.154;16.316;2023-11-19T06:11:09;4.10;99.90
48162;DHT22;33950;48.154;16.316;2023-11-19T06:13:38;4.00;99.90
48162;DHT22;33950;48.154;16.316;2023-11-19T06:16:04;3.90;99.90
48162;DHT22;33950;48.154;16.316;2023-11-19T06:18:29;4.00;99.90
48162;DHT22;33950;48.154;16.316;2023-11-19T06:20:56;4.00;99.90
48162;DHT22;33950;48.154;16.316;2023-11-19T06:23:22;4.00;99.90
48162;DHT22;33950;48.154;16.316;2023-11-19T06:25:47;3.90;99.90
48162;DHT22;33950;48.154;16.316;2023-11-19T06:28:14;3.90;99.90
48162;DHT22;33950;48.154;16.316;2023-11-19T06:30:40;3.90;99.90
48162;DHT22;33950;48.154;16.316;2023-11-19T06:33:06;3.90;99.90
48162;DHT22;33950;48.154;16.316;2023-11-19T06:35:32;4.00;99.90
48162;DHT22;33950;48.154;16.316;2023-11-19T06:38:01;4.00;99.90
48162;DHT22;33950;48.154;16.316;2023-11-19T06:40:27;4.00;99.90
48162;DHT22;33950;48.154;16.316;2023-11-19T06:42:53;4.00;99.90
48162;DHT22;33950;48.154;16.316;2023-11-19T06:45:20;4.00;99.90
48162;DHT22;33950;48.154;16.316;2023-11-19T06:47:45;4.00;99.90
48162;DHT22;33950;48.154;16.316;2023-11-19T06:50:11;4.00;99.90
48162;DHT22;33950;48.154;16.316;2023-11-19T06:52:37;4.10;99.90
48162;DHT22;33950;48.154;16.316;2023-11-19T06:55:03;4.20;99.90
48162;DHT22;33950;48.154;16.316;2023-11-19T06:57:29;4.30;99.90
48162;DHT22;33950;48.154;16.316;2023-11-19T06:59:56;4.30;99.90
48162;DHT22;33950;48.154;16.316;2023-11-19T07:02:24;4.30;99.90
48162;DHT22;33950;48.154;16.316;2023-11-19T07:04:49;4.20;99.90
48162;DHT22;33950;48.154;16.316;2023-11-19T07:07:15;4.20;99.90
48162;DHT22;33950;48.154;16.316;2023-11-19T07:09:41;4.10;99.90
48162;DHT22;33950;48.154;16.316;2023-11-19T07:12:06;4.10;99.90
48162;DHT22;33950;48.154;16.316;2023-11-19T07:14:32;4.10;99.90
48162;DHT22;33950;48.154;16.316;2023-11-19T07:16:57;4.00;99.90
48162;DHT22;33950;48.154;16.316;2023-11-19T07:19:24;4.00;99.90
48162;DHT22;33950;48.154;16.316;2023-11-19T07:21:50;3.90;99.90
48162;DHT22;33950;48.154;16.316;2023-11-19T07:24:15;3.70;99.90
48162;DHT22;33950;48.154;16.316;2023-11-19T07:26:42;3.40;99.90
48162;DHT22;33950;48.154;16.316;2023-11-19T07:29:08;3.20;99.90
48162;DHT22;33950;48.154;16.316;2023-11-19T07:31:34;3.30;99.90
48162;DHT22;33950;48.154;16.316;2023-11-19T07:33:59;3.30;99.90
48162;DHT22;33950;48.154;16.316;2023-11-19T07:36:26;3.20;99.90
48162;DHT22;33950;48.154;16.316;2023-11-19T07:38:52;3.20;99.90
48162;DHT22;33950;48.154;16.316;2023-11-19T07:41:18;3.40;99.90
48162;DHT22;33950;48.154;16.316;2023-11-19T07:43:45;3.30;99.90
48162;DHT22;33950;48.154;16.316;2023-11-19T07:46:12;3.20;99.90
48162;DHT22;33950;48.154;16.316;2023-11-19T07:48:41;3.40;99.90
48162;DHT22;33950;48.154;16.316;2023-11-19T07:51:07;3.40;99.90
48162;DHT22;33950;48.154;16.316;2023-11-19T07:53:34;3.20;99.90
48162;DHT22;33950;48.154;16.316;2023-11-19T07:56:00;3.20;99.90
48162;DHT22;33950;48.154;16.316;2023-11-19T07:58:25;3.40;99.90
48162;DHT22;33950;48.154;16.316;2023-11-19T08:00:51;3.20;99.90
48162;DHT22;33950;48.154;16.316;2023-11-19T08:03:17;3.10;99.90
48162;DHT22;33950;48.154;16.316;2023-11-19T08:05:44;3.20;99.90
48162;DHT22;33950;48.154;16.316;2023-11-19T08:08:10;3.40;99.90
48162;DHT22;33950;48.154;16.316;2023-11-19T08:10:37;3.30;99.90
48162;DHT22;33950;48.154;16.316;2023-11-19T08:13:03;3.20;99.90
48162;DHT22;33950;48.154;16.316;2023-11-19T08:15:28;3.40;99.90
48162;DHT22;33950;48.154;16.316;2023-11-19T08:17:54;3.40;99.90
48162;DHT22;33950;48.154;16.316;2023-11-19T08:20:19;3.30;99.90
48162;DHT22;33950;48.154;16.316;2023-11-19T08:22:45;3.30;99.90
48162;DHT22;33950;48.154;16.316;2023-11-19T08:25:10;3.50;99.90
48162;DHT22;33950;48.154;16.316;2023-11-19T08:27:37;3.50;99.90
48162;DHT22;33950;48.154;16.316;2023-11-19T08:30:03;3.40;99.90
48162;DHT22;33950;48.154;16.316;2023-11-19T08:32:29;3.40;99.90
48162;DHT22;33950;48.154;16.316;2023-11-19T08:34:54;3.60;99.90
48162;DHT22;33950;48.154;16.316;2023-11-19T08:37:21;3.60;99.90
48162;DHT22;33950;48.154;16.316;2023-11-19T08:39:47;3.50;99.90
48162;DHT22;33950;48.154;16.316;2023-11-19T08:42:13;3.60;99.90
48162;DHT22;33950;48.154;16.316;2023-11-19T08:44:40;3.80;99.90
48162;DHT22;33950;48.154;16.316;2023-11-19T08:47:09;3.70;99.90
48162;DHT22;33950;48.154;16.316;2023-11-19T08:49:34;3.70;99.90
48162;DHT22;33950;48.154;16.316;2023-11-19T08:52:00;3.80;99.90
48162;DHT22;33950;48.154;16.316;2023-11-19T08:54:26;4.00;99.90
48162;DHT22;33950;48.154;16.316;2023-11-19T08:56:52;3.90;99.90
48162;DHT22;33950;48.154;16.316;2023-11-19T08:59:17;3.90;99.90
48162;DHT22;33950;48.154;16.316;2023-11-19T09:01:45;3.90;99.90
48162;DHT22;33950;48.154;16.316;2023-11-19T09:04:11;4.10;99.90
48162;DHT22;33950;48.154;16.316;2023-11-19T09:06:36;3.90;99.90
48162;DHT22;33950;48.154;16.316;2023-11-19T09:09:02;3.80;99.90
48162;DHT22;33950;48.154;16.316;2023-11-19T09:11:28;4.00;99.90
48162;DHT22;33950;48.154;16.316;2023-11-19T09:13:54;4.20;99.90
48162;DHT22;33950;48.154;16.316;2023-11-19T09:16:19;4.10;99.90
48162;DHT22;33950;48.154;16.316;2023-11-19T09:18:46;4.00;99.90
48162;DHT22;33950;48.154;16.316;2023-11-19T09:21:12;4.10;99.90
48162;DHT22;33950;48.154;16.316;2023-11-19T09:23:38;4.30;99.90
48162;DHT22;33950;48.154;16.316;2023-11-19T09:26:04;4.30;99.90
48162;DHT22;33950;48.154;16.316;2023-11-19T09:28:30;4.20;99.90
48162;DHT22;33950;48.154;16.316;2023-11-19T09:30:56;4.30;99.90
48162;DHT22;33950;48.154;16.316;2023-11-19T09:33:22;4.40;99.90
48162;DHT22;33950;48.154;16.316;2023-11-19T09:35:48;4.60;99.90
48162;DHT22;33950;48.154;16.316;2023-11-19T09:38:15;4.60;99.90
48162;DHT22;33950;48.154;16.316;2023-11-19T09:40:40;4.50;99.90
48162;DHT22;33950;48.154;16.316;2023-11-19T09:43:06;4.50;99.90
48162;DHT22;33950;48.154;16.316;2023-11-19T09:45:32;4.60;99.90
48162;DHT22;33950;48.154;16.316;2023-11-19T09:48:03;4.80;99.90
48162;DHT22;33950;48.154;16.316;2023-11-19T09:50:29;4.90;99.90
48162;DHT22;33950;48.154;16.316;2023-11-19T09:52:56;5.00;99.90
48162;DHT22;33950;48.154;16.316;2023-11-19T09:55:21;5.00;99.90
48162;DHT22;33950;48.154;16.316;2023-11-19T09:57:47;5.10;99.90
48162;DHT22;33950;48.154;16.316;2023-11-19T10:00:15;5.10;99.90
48162;DHT22;33950;48.154;16.316;2023-11-19T10:02:40;5.20;99.90
48162;DHT22;33950;48.154;16.316;2023-11-19T10:05:07;5.20;99.90
48162;DHT22;33950;48.154;16.316;2023-11-19T10:07:33;5.20;99.90
48162;DHT22;33950;48.154;16.316;2023-11-19T10:10:00;5.40;99.90
48162;DHT22;33950;48.154;16.316;2023-11-19T10:12:26;5.40;99.90
48162;DHT22;33950;48.154;16.316;2023-11-19T10:14:51;5.50;99.90
48162;DHT22;33950;48.154;16.316;2023-11-19T10:17:18;5.40;99.90
48162;DHT22;33950;48.154;16.316;2023-11-19T10:19:44;5.40;99.90
48162;DHT22;33950;48.154;16.316;2023-11-19T10:22:09;5.40;99.90
48162;DHT22;33950;48.154;16.316;2023-11-19T10:24:35;5.50;99.90
48162;DHT22;33950;48.154;16.316;2023-11-19T10:27:06;5.50;99.90
48162;DHT22;33950;48.154;16.316;2023-11-19T10:29:35;5.50;99.90
48162;DHT22;33950;48.154;16.316;2023-11-19T10:32:01;5.50;99.90
48162;DHT22;33950;48.154;16.316;2023-11-19T10:34:27;5.60;99.90
48162;DHT22;33950;48.154;16.316;2023-11-19T10:36:53;5.60;99.90
48162;DHT22;33950;48.154;16.316;2023-11-19T10:39:18;5.60;99.90
48162;DHT22;33950;48.154;16.316;2023-11-19T10:41:44;5.70;99.90
48162;DHT22;33950;48.154;16.316;2023-11-19T10:44:11;5.70;99.90
48162;DHT22;33950;48.154;16.316;2023-11-19T10:46:37;5.70;99.90
48162;DHT22;33950;48.154;16.316;2023-11-19T10:49:04;5.70;99.90
48162;DHT22;33950;48.154;16.316;2023-11-19T10:51:29;5.70;99.90
48162;DHT22;33950;48.154;16.316;2023-11-19T10:54:07;5.70;99.90
48162;DHT22;33950;48.154;16.316;2023-11-19T10:56:37;5.70;99.90
48162;DHT22;33950;48.154;16.316;2023-11-19T10:59:03;5.70;99.90
48162;DHT22;33950;48.154;16.316;2023-11-19T11:01:34;5.70;99.90
48162;DHT22;33950;48.154;16.316;2023-11-19T11:04:00;5.70;99.90
48162;DHT22;33950;48.154;16.316;2023-11-19T11:06:27;5.70;99.90
48162;DHT22;33950;48.154;16.316;2023-11-19T11:08:52;5.70;99.90
48162;DHT22;33950;48.154;16.316;2023-11-19T11:11:18;5.70;99.90
48162;DHT22;33950;48.154;16.316;2023-11-19T11:13:49;5.70;99.90
48162;DHT22;33950;48.154;16.316;2023-11-19T11:16:15;5.60;99.90
48162;DHT22;33950;48.154;16.316;2023-11-19T11:18:45;5.40;99.90
48162;DHT22;33950;48.154;16.316;2023-11-19T11:21:12;5.40;99.90
48162;DHT22;33950;48.154;16.316;2023-11-19T11:23:52;5.50;99.90
48162;DHT22;33950;48.154;16.316;2023-11-19T11:26:28;5.40;99.90
48162;DHT22;33950;48.154;16.316;2023-11-19T11:28:59;5.30;99.90
48162;DHT22;33950;48.154;16.316;2023-11-19T11:31:29;5.30;99.90
48162;DHT22;33950;48.154;16.316;2023-11-19T11:34:03;5.40;99.90
48162;DHT22;33950;48.154;16.316;2023-11-19T11:36:31;5.50;99.90
48162;DHT22;33950;48.154;16.316;2023-11-19T11:39:02;5.30;99.90
48162;DHT22;33950;48.154;16.316;2023-11-19T11:41:33;5.30;99.90
48162;DHT22;33950;48.154;16.316;2023-11-19T11:43:58;5.40;99.90
48162;DHT22;33950;48.154;16.316;2023-11-19T11:49:12;5.30;99.90
48162;DHT22;33950;48.154;16.316;2023-11-19T11:54:25;5.10;99.90
48162;DHT22;33950;48.154;16.316;2023-11-19T11:57:00;5.30;99.90
48162;DHT22;33950;48.154;16.316;2023-11-19T11:59:27;5.40;99.90
48162;DHT22;33950;48.154;16.316;2023-11-19T12:01:57;5.20;99.90
48162;DHT22;33950;48.154;16.316;2023-11-19T12:04:26;5.10;99.90
48162;DHT22;33950;48.154;16.316;2023-11-19T12:07:02;5.20;99.90
48162;DHT22;33950;48.154;16.316;2023-11-19T12:09:28;5.40;99.90
48162;DHT22;33950;48.154;16.316;2023-11-19T12:12:05;5.60;99.90
48162;DHT22;33950;48.154;16.316;2023-11-19T12:19:54;6.00;99.90
48162;DHT22;33950;48.154;16.316;2023-11-19T12:22:20;6.10;99.90
48162;DHT22;33950;48.154;16.316;2023-11-19T12:24:45;6.10;99.90
48162;DHT22;33950;48.154;16.316;2023-11-19T12:27:12;6.10;99.90
48162;DHT22;33950;48.154;16.316;2023-11-19T12:29:41;6.10;99.90
48162;DHT22;33950;48.154;16.316;2023-11-19T12:32:07;6.20;99.90
48162;DHT22;33950;48.154;16.316;2023-11-19T12:34:32;6.20;99.90
48162;DHT22;33950;48.154;16.316;2023-11-19T12:37:02;6.20;99.90
48162;DHT22;33950;48.154;16.316;2023-11-19T12:39:29;6.20;99.90
48162;DHT22;33950;48.154;16.316;2023-11-19T12:41:55;6.20;99.90
48162;DHT22;33950;48.154;16.316;2023-11-19T12:44:21;6.10;99.90
48162;DHT22;33950;48.154;16.316;2023-11-19T12:46:46;6.10;99.90
48162;DHT22;33950;48.154;16.316;2023-11-19T12:49:24;6.20;99.90
48162;DHT22;33950;48.154;16.316;2023-11-19T12:51:49;6.20;99.90
48162;DHT22;33950;48.154;16.316;2023-11-19T12:54:16;6.20;99.90
48162;DHT22;33950;48.154;16.316;2023-11-19T12:56:51;6.20;99.90
48162;DHT22;33950;48.154;16.316;2023-11-19T12:59:16;6.20;99.90
48162;DHT22;33950;48.154;16.316;2023-11-19T13:01:42;6.20;99.90
48162;DHT22;33950;48.154;16.316;2023-11-19T13:04:18;6.20;99.90
48162;DHT22;33950;48.154;16.316;2023-11-19T13:06:44;6.20;99.90
48162;DHT22;33950;48.154;16.316;2023-11-19T13:09:12;6.20;99.90
48162;DHT22;33950;48.154;16.316;2023-11-19T13:11:48;6.20;99.90
48162;DHT22;33950;48.154;16.316;2023-11-19T13:14:13;6.10;99.90
48162;DHT22;33950;48.154;16.316;2023-11-19T13:16:39;6.20;99.90
48162;DHT22;33950;48.154;16.316;2023-11-19T13:19:04;6.10;99.90
48162;DHT22;33950;48.154;16.316;2023-11-19T13:21:30;6.10;99.90
48162;DHT22;33950;48.154;16.316;2023-11-19T13:23:56;6.20;99.90
48162;DHT22;33950;48.154;16.316;2023-11-19T13:26:21;6.20;99.90
48162;DHT22;33950;48.154;16.316;2023-11-19T13:28:48;6.20;99.90
48162;DHT22;33950;48.154;16.316;2023-11-19T13:31:14;6.00;99.90
48162;DHT22;33950;48.154;16.316;2023-11-19T13:33:40;5.70;99.90
48162;DHT22;33950;48.154;16.316;2023-11-19T13:36:06;5.70;99.90
48162;DHT22;33950;48.154;16.316;2023-11-19T13:38:32;5.80;99.90
48162;DHT22;33950;48.154;16.316;2023-11-19T13:40:58;5.70;99.90
48162;DHT22;33950;48.154;16.316;2023-11-19T13:43:24;5.50;99.90
48162;DHT22;33950;48.154;16.316;2023-11-19T13:45:51;5.50;99.90
48162;DHT22;33950;48.154;16.316;2023-11-19T13:48:18;5.80;99.90
48162;DHT22;33950;48.154;16.316;2023-11-19T13:50:47;6.00;99.90
48162;DHT22;33950;48.154;16.316;2023-11-19T13:53:12;5.90;99.90
48162;DHT22;33950;48.154;16.316;2023-11-19T13:55:38;5.80;99.90
48162;DHT22;33950;48.154;16.316;2023-11-19T13:58:04;5.80;99.90
48162;DHT22;33950;48.154;16.316;2023-11-19T14:00:29;6.00;99.90
48162;DHT22;33950;48.154;16.316;2023-11-19T14:03:01;6.20;99.90
48162;DHT22;33950;48.154;16.316;2023-11-19T14:05:29;6.20;99.90
48162;DHT22;33950;48.154;16.316;2023-11-19T14:07:55;5.90;99.90
48162;DHT22;33950;48.154;16.316;2023-11-19T14:10:22;5.80;99.90
48162;DHT22;33950;48.154;16.316;2023-11-19T14:12:48;5.90;99.90
48162;DHT22;33950;48.154;16.316;2023-11-19T14:15:15;6.10;99.90
48162;DHT22;33950;48.154;16.316;2023-11-19T14:17:42;6.10;99.90
48162;DHT22;33950;48.154;16.316;2023-11-19T14:20:09;5.80;99.90
48162;DHT22;33950;48.154;16.316;2023-11-19T14:22:40;5.70;99.90
48162;DHT22;33950;48.154;16.316;2023-11-19T14:25:06;5.90;99.90
48162;DHT22;33950;48.154;16.316;2023-11-19T14:27:38;6.10;99.90
48162;DHT22;33950;48.154;16.316;2023-11-19T14:30:04;6.20;99.90
48162;DHT22;33950;48.154;16.316;2023-11-19T14:32:30;6.10;99.90
48162;DHT22;33950;48.154;16.316;2023-11-19T14:34:56;5.80;99.90
48162;DHT22;33950;48.154;16.316;2023-11-19T14:37:23;5.80;99.90
48162;DHT22;33950;48.154;16.316;2023-11-19T14:39:49;6.00;99.90
48162;DHT22;33950;48.154;16.316;2023-11-19T14:42:16;6.10;99.90
48162;DHT22;33950;48.154;16.316;2023-11-19T14:44:43;6.00;99.90
48162;DHT22;33950;48.154;16.316;2023-11-19T14:47:09;5.80;99.90
48162;DHT22;33950;48.154;16.316;2023-11-19T14:49:35;5.80;99.90
48162;DHT22;33950;48.154;16.316;2023-11-19T14:52:03;5.90;99.90
48162;DHT22;33950;48.154;16.316;2023-11-19T14:54:30;6.10;99.90
48162;DHT22;33950;48.154;16.316;2023-11-19T14:56:56;6.10;99.90
48162;DHT22;33950;48.154;16.316;2023-11-19T14:59:21;6.00;99.90
48162;DHT22;33950;48.154;16.316;2023-11-19T15:01:47;6.10;99.90
48162;DHT22;33950;48.154;16.316;2023-11-19T15:04:13;6.30;99.90
48162;DHT22;33950;48.154;16.316;2023-11-19T15:06:38;6.30;99.90
48162;DHT22;33950;48.154;16.316;2023-11-19T15:09:04;6.40;99.90
48162;DHT22;33950;48.154;16.316;2023-11-19T15:11:32;6.40;99.90
48162;DHT22;33950;48.154;16.316;2023-11-19T15:13:58;6.50;99.90
48162;DHT22;33950;48.154;16.316;2023-11-19T15:16:24;6.50;99.90
48162;DHT22;33950;48.154;16.316;2023-11-19T15:18:56;6.50;99.90
48162;DHT22;33950;48.154;16.316;2023-11-19T15:21:24;6.50;99.90
48162;DHT22;33950;48.154;16.316;2023-11-19T15:23:50;6.50;99.90
48162;DHT22;33950;48.154;16.316;2023-11-19T15:26:15;6.50;99.90
48162;DHT22;33950;48.154;16.316;2023-11-19T15:28:42;6.50;99.90
48162;DHT22;33950;48.154;16.316;2023-11-19T15:31:08;6.50;99.90
48162;DHT22;33950;48.154;16.316;2023-11-19T15:33:35;6.50;99.90
48162;DHT22;33950;48.154;16.316;2023-11-19T15:36:00;6.50;99.90